Time;durP1;ratioP1;P1;durP2;ratioP2;P2;SDS_P1;SDS_P2;PMS_P1;PMS_P2;Temp;Humidity;BMP_temperature;BMP_pressure;BME280_temperature;BME280_humidity;BME280_pressure;Samples;Min_cycle;Max_cycle;Signal;HPM_P1;HPM_P2
2021/03/17 00:00:27;;;;;;;16.73;10.95;;;3.20;1.00;;;;;;4914158;29;20327;-77
2021/03/17 00:02:53;;;;;;;13.80;12.20;;;3.20;1.00;;;;;;4882711;29;21135;-75
2021/03/17 00:05:22;;;;;;;15.18;10.80;;;3.20;1.00;;;;;;4920688;29;21003;-75
2021/03/17 00:07:50;;;;;;;15.82;10.10;;;3.20;1.00;;;;;;4912393;28;21156;-75
2021/03/17 00:10:16;;;;;;;10.27;9.27;;;3.10;1.00;;;;;;4918634;29;21647;-76
2021/03/17 00:12:43;;;;;;;18.33;10.80;;;3.20;1.00;;;;;;4895465;29;20237;-74
2021/03/17 00:15:12;;;;;;;12.07;9.52;;;3.10;1.00;;;;;;4890142;29;21478;-76
2021/03/17 00:17:39;;;;;;;11.50;9.95;;;3.10;1.00;;;;;;4895954;29;20773;-77
2021/03/17 00:20:08;;;;;;;12.50;10.52;;;3.10;1.00;;;;;;4902646;28;20674;-76
2021/03/17 00:22:34;;;;;;;14.55;9.80;;;3.10;1.00;;;;;;4905230;29;20318;-76
2021/03/17 00:25:02;;;;;;;13.00;10.15;;;3.00;1.00;;;;;;4889179;29;20246;-75
2021/03/17 00:27:28;;;;;;;12.00;9.23;;;3.10;1.00;;;;;;4902292;28;20617;-77
2021/03/17 00:29:54;;;;;;;10.27;9.27;;;3.10;1.00;;;;;;4899184;29;20233;-78
2021/03/17 00:32:20;;;;;;;20.92;11.88;;;3.10;1.00;;;;;;4905632;28;20315;-75
2021/03/17 00:34:46;;;;;;;18.98;10.05;;;3.10;1.00;;;;;;4888785;29;20935;-74
2021/03/17 00:37:13;;;;;;;10.98;9.02;;;3.10;1.00;;;;;;4906122;28;20225;-75
2021/03/17 00:39:39;;;;;;;14.90;10.32;;;3.20;1.00;;;;;;4893626;28;21607;-73
2021/03/17 00:42:06;;;;;;;13.13;9.98;;;3.20;1.00;;;;;;4905869;29;21217;-72
2021/03/17 00:44:32;;;;;;;18.10;10.45;;;3.20;1.00;;;;;;4890589;28;20237;-75
2021/03/17 00:46:58;;;;;;;12.57;8.98;;;3.30;1.00;;;;;;4905294;29;20233;-71
2021/03/17 00:49:25;;;;;;;11.55;9.35;;;3.30;1.00;;;;;;4889124;28;20971;-74
2021/03/17 00:51:51;;;;;;;12.95;9.70;;;3.40;1.00;;;;;;4904303;29;20233;-73
2021/03/17 00:54:17;;;;;;;10.52;8.88;;;3.40;1.00;;;;;;4892538;29;20222;-73
2021/03/17 00:56:43;;;;;;;14.35;10.68;;;3.50;1.00;;;;;;4910406;28;20368;-73
2021/03/17 00:59:12;;;;;;;13.63;10.10;;;3.50;1.00;;;;;;4908787;29;20309;-72
2021/03/17 01:01:38;;;;;;;10.68;9.25;;;3.60;1.00;;;;;;4885928;29;20900;-73
2021/03/17 01:04:04;;;;;;;10.60;8.60;;;3.60;1.00;;;;;;4904020;29;20233;-73
2021/03/17 01:06:30;;;;;;;12.15;10.55;;;3.70;1.00;;;;;;4891878;29;20288;-74
2021/03/17 01:08:57;;;;;;;13.77;10.10;;;3.70;1.00;;;;;;4906284;29;20230;-73
2021/03/17 01:11:23;;;;;;;12.15;9.73;;;3.70;1.00;;;;;;4879333;29;20230;-75
2021/03/17 01:13:49;;;;;;;11.60;8.82;;;3.70;1.00;;;;;;4903565;28;21007;-73
2021/03/17 01:16:16;;;;;;;11.98;9.18;;;3.70;1.00;;;;;;4887809;28;20278;-72
2021/03/17 01:18:43;;;;;;;10.88;9.30;;;3.70;1.00;;;;;;4904261;28;20229;-74
2021/03/17 01:21:09;;;;;;;15.77;9.23;;;3.80;1.00;;;;;;4889613;28;20225;-74
2021/03/17 01:23:36;;;;;;;13.52;10.75;;;3.90;1.00;;;;;;4904205;28;20233;-73
2021/03/17 01:26:03;;;;;;;15.63;10.23;;;3.90;1.00;;;;;;4869040;29;20289;-74
2021/03/17 01:28:29;;;;;;;17.85;9.82;;;3.90;1.00;;;;;;4917512;28;20273;-72
2021/03/17 01:30:58;;;;;;;13.48;9.73;;;3.90;1.00;;;;;;4887517;28;20296;-75
2021/03/17 01:33:27;;;;;;;10.10;8.88;;;3.80;1.00;;;;;;4900400;29;20225;-75
2021/03/17 01:35:54;;;;;;;11.85;8.82;;;3.80;1.00;;;;;;4886604;28;20221;-76
2021/03/17 01:38:22;;;;;;;12.50;8.65;;;3.80;1.00;;;;;;4898736;28;20233;-76
2021/03/17 01:40:50;;;;;;;10.77;9.02;;;3.80;1.00;;;;;;4905559;29;20263;-77
2021/03/17 01:43:16;;;;;;;17.92;11.27;;;3.80;1.00;;;;;;4904868;28;20233;-76
2021/03/17 01:45:44;;;;;;;13.88;10.50;;;3.80;1.00;;;;;;4903507;29;20238;-75
2021/03/17 01:48:10;;;;;;;12.23;10.25;;;3.70;1.00;;;;;;4899719;28;20317;-76
2021/03/17 01:50:40;;;;;;;12.75;9.20;;;3.60;1.00;;;;;;4905715;29;20226;-76
2021/03/17 01:53:08;;;;;;;12.43;9.70;;;3.60;1.00;;;;;;4894729;28;20661;-76
2021/03/17 01:55:34;;;;;;;14.43;10.23;;;3.60;1.00;;;;;;4906179;28;20288;-77
2021/03/17 01:58:01;;;;;;;16.95;12.02;;;3.60;1.00;;;;;;4897223;29;20321;-75
2021/03/17 02:00:28;;;;;;;16.05;10.80;;;3.60;1.00;;;;;;4910094;28;20226;-75
2021/03/17 02:02:55;;;;;;;14.95;11.85;;;3.60;1.00;;;;;;4900892;29;20756;-76
2021/03/17 02:05:23;;;;;;;14.85;11.95;;;3.50;1.00;;;;;;4908392;29;20238;-76
2021/03/17 02:07:52;;;;;;;15.75;11.93;;;3.60;1.00;;;;;;4897317;28;20583;-75
2021/03/17 02:10:19;;;;;;;14.93;12.20;;;3.70;1.00;;;;;;4912573;29;20320;-76
2021/03/17 02:12:59;;;;;;;18.52;12.70;;;3.70;1.00;;;;;;4887301;29;21018;-76
2021/03/17 02:15:44;;;;;;;15.60;11.95;;;3.70;1.00;;;;;;4917689;29;20309;-76
2021/03/17 02:18:19;;;;;;;17.63;11.15;;;3.80;1.00;;;;;;4905862;28;20236;-75
2021/03/17 02:21:08;;;;;;;15.15;12.00;;;3.80;1.00;;;;;;4917014;29;20272;-75
2021/03/17 02:23:41;;;;;;;18.00;12.82;;;3.90;1.00;;;;;;4904036;28;20243;-76
2021/03/17 02:26:39;;;;;;;11.93;9.80;;;3.90;1.00;;;;;;4913682;29;20249;-76
2021/03/17 02:29:30;;;;;;;14.77;9.93;;;3.80;1.00;;;;;;4904700;28;20743;-75
2021/03/17 02:32:07;;;;;;;14.75;11.55;;;3.80;1.00;;;;;;4914565;29;20221;-76
2021/03/17 02:34:39;;;;;;;13.93;11.27;;;3.90;1.00;;;;;;4899857;29;20230;-76
2021/03/17 02:37:08;;;;;;;14.27;11.65;;;4.00;1.00;;;;;;4914986;28;20233;-76
2021/03/17 02:39:37;;;;;;;19.25;11.18;;;4.00;1.00;;;;;;4902226;28;20234;-76
2021/03/17 02:42:09;;;;;;;17.45;11.75;;;4.00;1.00;;;;;;4918218;28;20714;-76
2021/03/17 02:44:39;;;;;;;16.83;11.32;;;4.00;1.00;;;;;;4908766;28;20317;-75
2021/03/17 02:47:05;;;;;;;18.25;12.02;;;4.00;1.00;;;;;;4920992;28;20263;-76
2021/03/17 02:49:36;;;;;;;18.48;11.95;;;3.90;1.00;;;;;;4903423;29;20714;-76
2021/03/17 02:52:05;;;;;;;14.32;11.25;;;3.90;1.00;;;;;;4917541;29;20222;-76
2021/03/17 02:54:33;;;;;;;18.73;12.00;;;3.80;1.00;;;;;;4906837;28;20237;-76
2021/03/17 02:57:04;;;;;;;13.88;11.13;;;3.80;1.00;;;;;;4919985;29;20230;-75
2021/03/17 02:59:33;;;;;;;17.85;11.80;;;3.70;1.00;;;;;;4911265;28;20221;-76
2021/03/17 03:02:01;;;;;;;15.60;11.10;;;3.60;1.00;;;;;;4923184;29;20707;-76
2021/03/17 03:04:28;;;;;;;21.02;11.77;;;3.60;1.00;;;;;;4913151;28;20369;-75
2021/03/17 03:06:57;;;;;;;16.35;12.07;;;3.50;1.00;;;;;;4936293;28;20228;-75
2021/03/17 03:09:26;;;;;;;15.18;11.80;;;3.50;1.00;;;;;;4907398;29;20231;-75
2021/03/17 03:11:54;;;;;;;19.10;11.90;;;3.50;1.00;;;;;;4917038;28;21008;-76
2021/03/17 03:14:21;;;;;;;15.23;11.23;;;3.40;1.00;;;;;;4933778;29;20226;-76
2021/03/17 03:16:49;;;;;;;14.70;10.98;;;3.40;1.00;;;;;;4903840;28;20239;-75
2021/03/17 03:19:18;;;;;;;16.63;12.13;;;3.40;1.00;;;;;;4917232;29;20289;-75
2021/03/17 03:21:46;;;;;;;21.10;12.18;;;3.40;1.00;;;;;;4904006;29;20238;-75
2021/03/17 03:24:15;;;;;;;17.02;11.55;;;3.40;1.00;;;;;;4925597;28;20230;-74
2021/03/17 03:26:41;;;;;;;24.77;13.15;;;3.40;1.00;;;;;;4904940;28;20312;-74
2021/03/17 03:29:08;;;;;;;14.57;11.70;;;3.40;1.00;;;;;;4914740;28;20233;-75
2021/03/17 03:31:35;;;;;;;16.73;13.48;;;3.40;1.00;;;;;;4902177;28;21213;-74
2021/03/17 03:34:03;;;;;;;19.80;13.90;;;3.40;1.00;;;;;;4911331;29;20229;-75
2021/03/17 03:36:29;;;;;;;21.88;12.98;;;3.40;1.00;;;;;;4900083;29;20240;-75
2021/03/17 03:38:58;;;;;;;22.27;14.93;;;3.40;1.00;;;;;;4912126;29;20262;-74
2021/03/17 03:41:25;;;;;;;21.00;13.95;;;3.40;1.00;;;;;;4899149;28;20985;-75
2021/03/17 03:43:51;;;;;;;18.42;13.00;;;3.30;1.00;;;;;;4912513;29;20237;-76
2021/03/17 03:46:18;;;;;;;22.15;14.02;;;3.30;1.00;;;;;;4899419;28;20994;-76
2021/03/17 03:48:44;;;;;;;33.00;15.52;;;3.30;1.00;;;;;;4910918;29;20289;-76
2021/03/17 03:51:13;;;;;;;18.90;13.13;;;3.30;1.00;;;;;;4897715;28;22154;-75
2021/03/17 03:53:46;;;;;;;23.15;13.48;;;3.30;1.00;;;;;;4913825;28;20229;-76
2021/03/17 03:56:17;;;;;;;22.27;14.13;;;3.30;1.00;;;;;;4902238;29;20234;-75
2021/03/17 03:58:49;;;;;;;23.35;15.38;;;3.30;1.00;;;;;;4910017;28;20229;-77
2021/03/17 04:01:20;;;;;;;22.05;14.73;;;3.30;1.00;;;;;;4906529;29;20230;-76
2021/03/17 04:03:53;;;;;;;20.63;13.90;;;3.30;1.00;;;;;;4912285;28;20315;-76
2021/03/17 04:06:19;;;;;;;18.40;13.82;;;3.30;1.00;;;;;;4912113;29;20242;-77
2021/03/17 04:08:49;;;;;;;22.17;14.40;;;3.30;1.00;;;;;;4903465;29;20222;-76
2021/03/17 04:11:17;;;;;;;19.08;13.80;;;3.30;1.00;;;;;;4914085;28;20226;-76
2021/03/17 04:13:46;;;;;;;26.10;14.88;;;3.30;1.00;;;;;;4903919;28;20234;-75
2021/03/17 04:16:14;;;;;;;25.63;15.52;;;3.20;1.00;;;;;;4916446;28;20228;-74
2021/03/17 04:18:44;;;;;;;19.23;15.60;;;3.20;1.00;;;;;;4904904;28;20229;-75
2021/03/17 04:21:16;;;;;;;19.23;13.48;;;3.20;1.00;;;;;;4916027;28;20230;-75
2021/03/17 04:23:44;;;;;;;23.15;14.77;;;3.20;1.00;;;;;;4907905;29;20237;-76
2021/03/17 04:26:12;;;;;;;21.38;14.50;;;3.10;1.00;;;;;;4912286;29;20244;-76
2021/03/17 04:28:40;;;;;;;20.30;15.60;;;3.10;1.00;;;;;;4899559;28;20309;-75
2021/03/17 04:31:08;;;;;;;24.30;16.38;;;3.10;1.00;;;;;;4915274;29;20226;-75
2021/03/17 04:33:37;;;;;;;21.60;15.70;;;3.10;1.00;;;;;;4905077;28;20317;-75
2021/03/17 04:36:05;;;;;;;23.25;16.33;;;3.20;1.00;;;;;;4913056;29;20221;-75
2021/03/17 04:38:33;;;;;;;27.90;16.63;;;3.20;1.00;;;;;;4901895;29;20229;-75
2021/03/17 04:41:00;;;;;;;25.55;16.88;;;3.10;1.00;;;;;;4914507;28;20234;-75
2021/03/17 04:43:27;;;;;;;22.00;16.00;;;3.20;1.00;;;;;;4904843;29;20230;-75
2021/03/17 04:45:54;;;;;;;25.23;16.05;;;3.10;1.00;;;;;;4900900;29;20245;-75
2021/03/17 04:48:23;;;;;;;25.88;16.77;;;3.10;1.00;;;;;;4910397;29;20783;-75
2021/03/17 04:50:50;;;;;;;21.38;15.45;;;3.10;1.00;;;;;;4927719;28;20219;-74
2021/03/17 04:53:17;;;;;;;29.55;16.95;;;3.10;1.00;;;;;;4928003;28;20226;-77
2021/03/17 04:55:43;;;;;;;22.00;15.85;;;3.00;1.00;;;;;;4938172;29;20274;-77
2021/03/17 04:58:12;;;;;;;28.02;16.38;;;3.00;1.00;;;;;;4938444;28;20300;-75
2021/03/17 05:00:41;;;;;;;25.52;17.13;;;2.90;1.00;;;;;;4935523;28;20230;-76
2021/03/17 05:03:11;;;;;;;26.63;16.85;;;3.00;1.00;;;;;;4940032;28;20290;-77
2021/03/17 05:05:40;;;;;;;25.67;16.20;;;3.00;1.00;;;;;;4933701;28;20262;-75
2021/03/17 05:08:09;;;;;;;28.02;17.98;;;3.00;1.00;;;;;;4921695;29;20230;-76
2021/03/17 05:10:38;;;;;;;26.30;16.85;;;3.00;1.00;;;;;;4901993;28;20230;-76
2021/03/17 05:13:08;;;;;;;21.58;16.75;;;3.10;1.00;;;;;;4914028;29;21086;-75
2021/03/17 05:15:35;;;;;;;29.50;16.95;;;3.00;1.00;;;;;;4898655;28;20230;-76
2021/03/17 05:18:03;;;;;;;23.98;16.73;;;3.10;1.00;;;;;;4915624;29;20234;-76
2021/03/17 05:20:30;;;;;;;23.67;16.45;;;3.10;1.00;;;;;;4904949;28;20491;-74
2021/03/17 05:22:58;;;;;;;21.70;15.48;;;3.10;1.00;;;;;;4914855;29;20222;-75
2021/03/17 05:25:26;;;;;;;25.02;16.95;;;3.20;1.00;;;;;;4885149;29;20324;-75
2021/03/17 05:27:53;;;;;;;25.63;17.80;;;3.20;1.00;;;;;;4912789;28;20217;-77
2021/03/17 05:30:22;;;;;;;24.92;17.35;;;3.20;1.00;;;;;;4902071;29;20236;-76
2021/03/17 05:32:49;;;;;;;25.83;17.55;;;3.20;1.00;;;;;;4913765;28;20238;-76
2021/03/17 05:35:19;;;;;;;22.73;16.85;;;3.20;1.00;;;;;;4890759;29;20788;-76
2021/03/17 05:37:46;;;;;;;24.17;17.83;;;3.30;1.00;;;;;;4919703;29;20229;-75
2021/03/17 05:40:15;;;;;;;20.00;16.00;;;3.30;1.00;;;;;;4908849;28;20266;-76
2021/03/17 05:42:43;;;;;;;22.42;16.02;;;3.30;1.00;;;;;;4917658;29;20256;-75
2021/03/17 05:45:12;;;;;;;25.65;15.85;;;3.40;1.00;;;;;;4919370;28;20293;-76
2021/03/17 05:47:42;;;;;;;24.48;17.02;;;3.40;1.00;;;;;;4907858;29;20296;-76
2021/03/17 05:50:10;;;;;;;24.38;16.08;;;3.30;1.00;;;;;;4916169;28;20281;-77
2021/03/17 05:52:36;;;;;;;24.52;15.50;;;3.30;1.00;;;;;;4913006;29;20237;-77
2021/03/17 05:55:04;;;;;;;21.20;15.50;;;3.30;1.00;;;;;;4922067;29;20231;-75
2021/03/17 05:57:32;;;;;;;23.02;16.23;;;3.20;1.00;;;;;;4906258;28;20926;-74
2021/03/17 05:59:58;;;;;;;22.95;15.27;;;3.20;1.00;;;;;;4915016;29;20226;-74
2021/03/17 06:02:24;;;;;;;23.25;15.15;;;3.10;1.00;;;;;;4901066;28;20261;-76
2021/03/17 06:04:51;;;;;;;24.08;16.10;;;3.00;1.00;;;;;;4919033;29;20304;-75
2021/03/17 06:07:23;;;;;;;26.67;17.33;;;2.90;1.00;;;;;;4900424;29;20226;-75
2021/03/17 06:09:51;;;;;;;27.50;15.70;;;2.90;1.00;;;;;;4915398;28;20225;-76
2021/03/17 06:12:20;;;;;;;21.90;16.95;;;2.90;1.00;;;;;;4902490;29;20233;-73
2021/03/17 06:14:49;;;;;;;23.52;15.80;;;3.00;1.00;;;;;;4921324;28;20280;-74
2021/03/17 06:17:19;;;;;;;26.30;15.65;;;3.00;1.00;;;;;;4897836;29;20236;-74
2021/03/17 06:19:48;;;;;;;22.50;15.48;;;3.10;1.00;;;;;;4921576;28;20260;-75
2021/03/17 06:22:15;;;;;;;24.30;16.58;;;3.10;1.00;;;;;;4903137;29;20269;-73
2021/03/17 06:24:42;;;;;;;22.90;15.50;;;3.20;1.00;;;;;;4913648;29;20225;-74
2021/03/17 06:27:11;;;;;;;23.45;15.80;;;3.30;1.00;;;;;;4908819;28;20225;-75
2021/03/17 06:29:38;;;;;;;22.50;15.48;;;3.30;1.00;;;;;;4913376;29;21028;-75
2021/03/17 06:32:06;;;;;;;22.05;16.23;;;3.40;1.00;;;;;;4905806;28;20226;-75
2021/03/17 06:34:33;;;;;;;20.30;14.10;;;3.40;1.00;;;;;;4910375;29;20257;-74
2021/03/17 06:36:59;;;;;;;21.33;14.98;;;3.50;1.00;;;;;;4913399;28;20222;-74
2021/03/17 06:39:34;;;;;;;23.42;13.93;;;3.50;1.00;;;;;;4917178;29;21117;-77
2021/03/17 06:42:00;;;;;;;48.45;15.48;;;3.60;1.00;;;;;;4927703;29;21043;-76
2021/03/17 06:44:28;;;;;;;20.67;13.93;;;3.80;1.00;;;;;;4913165;28;20384;-77
2021/03/17 06:47:11;;;;;;;21.50;15.82;;;4.00;1.00;;;;;;4923320;29;20242;-77
2021/03/17 06:49:41;;;;;;;20.83;13.93;;;4.10;1.00;;;;;;4924445;28;20371;-76
2021/03/17 06:52:33;;;;;;;19.33;14.15;;;4.20;1.00;;;;;;4916461;28;23759;-79
2021/03/17 06:55:08;;;;;;;23.30;16.10;;;4.20;1.00;;;;;;4888373;29;20226;-78
2021/03/17 06:57:34;;;;;;;25.10;16.50;;;4.20;1.00;;;;;;4920598;29;20329;-79
2021/03/17 07:00:24;;;;;;;17.60;14.38;;;4.40;1.00;;;;;;4905483;28;20313;-77
2021/03/17 07:02:53;;;;;;;17.83;13.48;;;4.60;1.00;;;;;;4913922;29;20226;-76
2021/03/17 07:05:20;;;;;;;17.55;12.05;;;4.70;1.00;;;;;;4903527;29;20269;-77
2021/03/17 07:07:48;;;;;;;20.13;16.60;;;4.80;1.00;;;;;;4918238;28;20964;-77
2021/03/17 07:10:25;;;;;;;24.25;15.20;;;4.90;1.00;;;;;;4905837;29;20233;-75
2021/03/17 07:12:53;;;;;;;18.45;12.82;;;4.90;1.00;;;;;;4914813;28;20218;-76
2021/03/17 07:15:20;;;;;;;23.83;13.75;;;4.90;1.00;;;;;;4901540;28;20226;-76
2021/03/17 07:17:47;;;;;;;22.25;14.45;;;5.00;1.00;;;;;;4898506;29;20240;-76
2021/03/17 07:20:34;;;;;;;25.25;15.85;;;5.00;1.00;;;;;;4904103;28;20233;-79
2021/03/17 07:23:24;;;;;;;18.98;13.07;;;5.10;1.00;;;;;;4916536;29;20555;-75
2021/03/17 07:26:05;;;;;;;19.55;12.25;;;5.10;1.00;;;;;;4903747;28;21139;-77
2021/03/17 07:28:50;;;;;;;14.75;12.73;;;5.20;1.00;;;;;;4921101;28;20222;-76
2021/03/17 07:31:19;;;;;;;26.75;18.65;;;5.30;1.00;;;;;;4905274;28;20222;-76
2021/03/17 07:33:46;;;;;;;24.65;14.20;;;5.40;1.00;;;;;;4925080;29;20298;-77
2021/03/17 07:36:29;;;;;;;18.92;13.20;;;5.40;1.00;;;;;;4914561;28;20319;-76
2021/03/17 07:38:56;;;;;;;17.17;12.73;;;5.50;1.00;;;;;;4919425;29;20308;-76
2021/03/17 07:41:24;;;;;;;26.45;13.98;;;5.60;1.00;;;;;;4906422;29;21024;-76
2021/03/17 07:43:53;;;;;;;18.48;13.25;;;5.60;1.00;;;;;;4917524;28;20225;-75
2021/03/17 07:46:21;;;;;;;24.25;12.15;;;5.90;1.00;;;;;;4912063;29;20247;-75
2021/03/17 07:48:49;;;;;;;18.95;13.52;;;6.10;1.00;;;;;;4926664;28;20230;-75
2021/03/17 07:51:16;;;;;;;17.90;11.15;;;6.10;1.00;;;;;;4927977;29;20226;-76
2021/03/17 07:53:45;;;;;;;30.63;17.60;;;6.20;1.00;;;;;;4937828;28;20561;-76
2021/03/17 07:56:12;;;;;;;17.17;14.95;;;6.40;1.00;;;;;;4925896;29;20237;-76
2021/03/17 07:58:39;;;;;;;19.33;13.90;;;6.30;1.00;;;;;;4933114;29;20231;-77
2021/03/17 08:01:05;;;;;;;23.17;14.45;;;6.40;1.00;;;;;;4921830;28;20252;-76
2021/03/17 08:03:31;;;;;;;26.35;14.80;;;6.20;1.00;;;;;;4937125;29;20454;-76
2021/03/17 08:06:00;;;;;;;15.88;11.68;;;6.20;1.00;;;;;;4927251;28;20234;-76
2021/03/17 08:08:28;;;;;;;25.35;15.45;;;6.20;1.00;;;;;;4937139;29;21101;-76
2021/03/17 08:10:55;;;;;;;21.92;16.70;;;6.10;1.00;;;;;;4939401;29;20285;-76
2021/03/17 08:13:22;;;;;;;21.95;12.52;;;6.10;1.00;;;;;;4916903;29;20230;-75
2021/03/17 08:15:49;;;;;;;21.88;15.15;;;6.10;1.00;;;;;;4931607;29;20305;-76
2021/03/17 08:18:41;;;;;;;18.92;13.27;;;6.20;1.00;;;;;;4923993;28;20308;-75
2021/03/17 08:21:10;;;;;;;15.35;12.40;;;6.20;1.00;;;;;;4933533;29;20260;-75
2021/03/17 08:23:45;;;;;;;37.65;13.80;;;6.30;1.00;;;;;;4922279;28;20226;-75
2021/03/17 08:26:13;;;;;;;25.48;14.30;;;6.20;1.00;;;;;;4928800;29;20225;-76
2021/03/17 08:28:56;;;;;;;25.38;13.93;;;6.20;1.00;;;;;;4923040;29;20256;-77
2021/03/17 08:31:48;;;;;;;18.42;12.48;;;6.10;1.00;;;;;;4917508;29;20234;-74
2021/03/17 08:34:26;;;;;;;19.45;13.52;;;6.20;1.00;;;;;;4922750;29;20252;-77
2021/03/17 08:36:55;;;;;;;22.48;14.80;;;6.30;1.00;;;;;;4920041;28;20224;-76
2021/03/17 08:39:46;;;;;;;19.83;13.50;;;6.20;1.00;;;;;;4895935;29;20226;-78
2021/03/17 08:42:25;;;;;;;19.95;16.33;;;6.10;1.00;;;;;;4911699;28;21598;-77
2021/03/17 08:44:52;;;;;;;22.73;14.98;;;6.00;1.00;;;;;;4923645;29;20288;-76
2021/03/17 08:47:26;;;;;;;15.63;12.07;;;6.10;1.00;;;;;;4919707;28;20230;-75
2021/03/17 08:49:54;;;;;;;16.05;12.40;;;6.20;1.00;;;;;;4917011;29;20713;-76
2021/03/17 08:52:21;;;;;;;24.45;15.73;;;6.30;1.00;;;;;;4899263;29;20252;-76
2021/03/17 08:55:03;;;;;;;20.77;13.98;;;6.20;1.00;;;;;;4905422;28;20226;-76
2021/03/17 08:58:00;;;;;;;23.45;14.95;;;6.30;1.00;;;;;;4918918;28;20289;-77
2021/03/17 09:00:52;;;;;;;19.38;13.80;;;6.40;1.00;;;;;;4906635;28;20672;-76
2021/03/17 09:03:48;;;;;;;19.65;14.10;;;6.50;1.00;;;;;;4903974;28;21048;-77
2021/03/17 09:06:19;;;;;;;17.50;13.52;;;6.60;1.00;;;;;;4917584;28;20240;-76
2021/03/17 09:09:01;;;;;;;16.30;12.30;;;6.70;1.00;;;;;;4903038;29;20321;-76
2021/03/17 09:11:58;;;;;;;18.48;13.35;;;6.70;1.00;;;;;;4912801;28;20297;-77
2021/03/17 09:14:29;;;;;;;16.95;13.07;;;6.70;1.00;;;;;;4905810;29;21048;-76
2021/03/17 09:17:21;;;;;;;19.63;12.13;;;6.60;1.00;;;;;;4913627;28;20237;-77
2021/03/17 09:20:13;;;;;;;20.15;13.68;;;6.40;1.00;;;;;;4889010;29;20235;-77
2021/03/17 09:22:43;;;;;;;18.10;12.63;;;6.40;1.00;;;;;;4905165;28;20329;-77
2021/03/17 09:25:24;;;;;;;17.02;11.85;;;6.40;1.00;;;;;;4895910;28;20244;-75
2021/03/17 09:27:55;;;;;;;18.50;13.57;;;6.50;1.00;;;;;;4903884;29;20240;-76
2021/03/17 09:30:24;;;;;;;17.25;12.25;;;6.70;1.00;;;;;;4894323;28;20253;-77
2021/03/17 09:32:59;;;;;;;17.08;13.05;;;6.90;1.00;;;;;;4904090;29;20225;-75
2021/03/17 09:35:25;;;;;;;17.55;12.40;;;7.10;1.00;;;;;;4890878;28;20233;-77
2021/03/17 09:37:59;;;;;;;23.92;14.43;;;7.20;1.00;;;;;;4886017;29;20706;-76
2021/03/17 09:40:26;;;;;;;18.30;12.43;;;7.40;1.00;;;;;;4876875;29;20312;-75
2021/03/17 09:42:53;;;;;;;18.10;13.60;;;7.40;1.00;;;;;;4903575;29;20272;-76
2021/03/17 09:45:24;;;;;;;17.88;14.00;;;7.60;1.00;;;;;;4872396;29;20246;-78
2021/03/17 09:47:55;;;;;;;18.58;11.95;;;7.70;1.00;;;;;;4905266;28;20234;-75
2021/03/17 09:50:22;;;;;;;16.85;11.23;;;7.70;1.00;;;;;;4898286;29;20735;-75
2021/03/17 09:52:48;;;;;;;14.35;11.23;;;7.70;1.00;;;;;;4904876;28;20224;-76
2021/03/17 09:55:31;;;;;;;15.85;11.95;;;7.60;1.00;;;;;;4894880;29;20254;-75
2021/03/17 09:58:00;;;;;;;13.35;10.75;;;7.60;1.00;;;;;;4922863;28;20226;-75
2021/03/17 10:00:27;;;;;;;14.52;10.93;;;7.60;1.00;;;;;;4899707;29;20225;-76
2021/03/17 10:02:57;;;;;;;15.45;11.88;;;7.70;1.00;;;;;;4910947;29;20233;-76
2021/03/17 10:05:23;;;;;;;15.18;11.25;;;7.60;1.00;;;;;;4901622;28;21079;-76
2021/03/17 10:07:49;;;;;;;16.35;11.48;;;7.70;1.00;;;;;;4898571;29;20294;-74
2021/03/17 10:10:15;;;;;;;16.38;11.13;;;7.60;1.00;;;;;;4906722;28;20276;-76
2021/03/17 10:12:43;;;;;;;13.23;10.63;;;7.40;1.00;;;;;;4881119;29;20325;-75
2021/03/17 10:15:12;;;;;;;15.75;11.52;;;7.40;1.00;;;;;;4893679;28;20740;-77
2021/03/17 10:17:41;;;;;;;16.77;12.02;;;7.40;1.00;;;;;;4902479;28;20235;-75
2021/03/17 10:20:10;;;;;;;14.82;11.43;;;7.30;1.00;;;;;;4916823;29;20237;-75
2021/03/17 10:22:36;;;;;;;18.85;13.23;;;7.30;1.00;;;;;;4910557;28;20237;-76
2021/03/17 10:25:08;;;;;;;15.57;11.70;;;7.20;1.00;;;;;;4911825;29;20237;-74
2021/03/17 10:27:36;;;;;;;13.52;10.38;;;7.20;1.00;;;;;;4894757;28;20222;-76
2021/03/17 10:30:08;;;;;;;15.85;11.30;;;7.20;1.00;;;;;;4910463;29;20233;-75
2021/03/17 10:32:37;;;;;;;18.00;14.05;;;7.10;1.00;;;;;;4898148;29;20574;-78
2021/03/17 10:35:07;;;;;;;18.27;13.55;;;7.00;1.00;;;;;;4912490;28;21547;-76
2021/03/17 10:37:34;;;;;;;14.95;10.75;;;7.00;1.00;;;;;;4894801;29;20269;-74
2021/03/17 10:40:08;;;;;;;16.98;10.38;;;7.10;1.00;;;;;;4885450;29;20275;-76
2021/03/17 10:42:42;;;;;;;22.00;15.45;;;7.30;1.00;;;;;;4903146;28;20237;-76
2021/03/17 10:45:10;;;;;;;11.95;10.65;;;7.30;1.00;;;;;;4912117;28;20241;-76
2021/03/17 10:47:40;;;;;;;12.82;10.40;;;7.40;1.00;;;;;;4900361;28;20978;-77
2021/03/17 10:50:08;;;;;;;11.55;10.02;;;7.30;1.00;;;;;;4910357;28;20241;-78
2021/03/17 10:52:39;;;;;;;12.90;8.77;;;7.20;1.00;;;;;;4901354;28;20293;-76
2021/03/17 10:55:12;;;;;;;15.32;10.30;;;7.00;1.00;;;;;;4914188;29;20237;-76
2021/03/17 10:57:38;;;;;;;15.40;12.55;;;6.80;1.00;;;;;;4903244;28;20221;-78
2021/03/17 11:00:17;;;;;;;13.43;9.13;;;6.90;1.00;;;;;;4907906;29;20222;-75
2021/03/17 11:02:44;;;;;;;11.25;9.13;;;6.90;1.00;;;;;;4896482;28;20251;-76
2021/03/17 11:05:31;;;;;;;10.88;8.20;;;6.80;1.00;;;;;;4915155;28;20325;-77
2021/03/17 11:08:00;;;;;;;10.60;9.50;;;6.70;1.00;;;;;;4900396;28;20359;-76
2021/03/17 11:10:36;;;;;;;13.30;9.35;;;6.60;1.00;;;;;;4910772;28;20373;-76
2021/03/17 11:13:29;;;;;;;11.07;9.23;;;6.40;1.00;;;;;;4904743;29;20342;-76
2021/03/17 11:15:58;;;;;;;12.65;10.35;;;6.40;1.00;;;;;;4912123;28;20250;-76
2021/03/17 11:18:26;;;;;;;19.67;11.75;;;6.30;1.00;;;;;;4898571;29;20300;-76
2021/03/17 11:20:54;;;;;;;11.45;9.65;;;6.40;1.00;;;;;;4908311;28;20253;-74
2021/03/17 11:23:24;;;;;;;13.10;10.68;;;6.40;1.00;;;;;;4909716;29;20317;-73
2021/03/17 11:25:52;;;;;;;12.55;10.48;;;6.30;1.00;;;;;;4920301;29;21019;-75
2021/03/17 11:28:19;;;;;;;12.50;10.80;;;6.40;1.00;;;;;;4924293;28;20261;-76
2021/03/17 11:30:48;;;;;;;16.70;10.13;;;6.40;1.00;;;;;;4904941;29;20388;-74
2021/03/17 11:33:15;;;;;;;14.32;11.02;;;6.50;1.00;;;;;;4912007;28;21020;-74
2021/03/17 11:35:43;;;;;;;12.55;9.68;;;6.40;1.00;;;;;;4911866;28;20724;-74
2021/03/17 11:38:10;;;;;;;11.00;9.35;;;6.30;1.00;;;;;;4917729;28;20285;-74
2021/03/17 11:40:39;;;;;;;12.18;9.60;;;6.30;1.00;;;;;;4897114;29;20236;-75
2021/03/17 11:43:10;;;;;;;11.35;9.63;;;6.30;1.00;;;;;;4912392;29;20238;-75
2021/03/17 11:45:37;;;;;;;11.98;9.43;;;6.30;1.00;;;;;;4896383;28;20268;-75
2021/03/17 11:48:05;;;;;;;12.32;9.40;;;6.20;1.00;;;;;;4909021;28;20225;-74
2021/03/17 11:50:31;;;;;;;12.45;10.05;;;6.20;1.00;;;;;;4886733;28;20230;-75
2021/03/17 11:52:58;;;;;;;13.63;10.35;;;6.20;1.00;;;;;;4907155;29;20260;-74
2021/03/17 11:55:25;;;;;;;18.63;11.30;;;6.30;1.00;;;;;;4900901;29;20975;-77
2021/03/17 11:57:51;;;;;;;11.38;8.52;;;6.30;1.00;;;;;;4915505;28;20226;-76
2021/03/17 12:00:19;;;;;;;13.60;9.38;;;6.40;1.00;;;;;;4902526;29;20225;-75
2021/03/17 12:02:46;;;;;;;10.73;8.65;;;6.70;1.00;;;;;;4918512;28;20247;-75
2021/03/17 12:05:13;;;;;;;11.77;9.38;;;6.80;1.00;;;;;;4902004;29;20237;-75
2021/03/17 12:07:40;;;;;;;14.05;11.07;;;7.00;1.00;;;;;;4919796;28;20225;-75
2021/03/17 12:10:09;;;;;;;11.63;8.02;;;7.10;1.00;;;;;;4927783;29;20886;-77
2021/03/17 12:12:36;;;;;;;9.90;7.50;;;7.10;1.00;;;;;;4910930;29;20231;-76
2021/03/17 12:15:03;;;;;;;10.50;8.80;;;7.20;1.00;;;;;;4914373;28;20226;-76
2021/03/17 12:17:30;;;;;;;8.98;7.97;;;7.30;1.00;;;;;;4899752;28;21038;-75
2021/03/17 12:19:56;;;;;;;9.25;6.55;;;7.40;1.00;;;;;;4920899;28;20270;-75
2021/03/17 12:22:22;;;;;;;9.73;7.68;;;7.50;1.00;;;;;;4896315;29;20229;-76
2021/03/17 12:24:48;;;;;;;9.65;7.10;;;7.50;1.00;;;;;;4907070;28;20232;-77
2021/03/17 12:27:16;;;;;;;9.13;7.40;;;7.60;1.00;;;;;;4887408;29;20269;-75
2021/03/17 12:29:42;;;;;;;10.88;7.95;;;7.60;1.00;;;;;;4910084;29;20217;-76
2021/03/17 12:32:08;;;;;;;10.15;7.50;;;7.70;1.00;;;;;;4898541;28;20222;-78
2021/03/17 12:34:34;;;;;;;8.10;6.95;;;7.80;1.00;;;;;;4908616;29;20234;-77
2021/03/17 12:37:01;;;;;;;8.95;7.03;;;8.10;1.00;;;;;;4902479;28;20226;-77
2021/03/17 12:39:27;;;;;;;8.13;6.60;;;8.60;1.00;;;;;;4910561;29;20465;-76
2021/03/17 12:41:54;;;;;;;7.47;5.83;;;10.30;1.00;;;;;;4886729;29;20834;-75
2021/03/17 12:44:21;;;;;;;7.63;5.77;;;13.00;1.00;;;;;;4913264;28;20460;-75
2021/03/17 12:46:47;;;;;;;7.90;5.40;;;14.40;1.00;;;;;;4900695;28;20549;-77
2021/03/17 12:49:14;;;;;;;7.00;6.10;;;14.90;1.00;;;;;;4912980;28;20447;-79
2021/03/17 12:51:40;;;;;;;5.33;4.53;;;15.40;1.00;;;;;;4912854;29;20494;-77
2021/03/17 12:54:06;;;;;;;5.90;4.83;;;17.20;1.00;;;;;;4909394;29;20528;-76
2021/03/17 12:56:33;;;;;;;5.47;4.90;;;19.00;1.00;;;;;;4910773;28;20446;-76
2021/03/17 12:59:00;;;;;;;5.57;5.00;;;20.50;1.00;;;;;;4898534;28;20479;-78
2021/03/17 13:01:28;;;;;;;5.47;5.00;;;20.90;1.00;;;;;;4919236;28;20466;-76
2021/03/17 13:03:54;;;;;;;5.00;4.50;;;20.80;1.00;;;;;;4902270;28;21287;-77